sensor_id;sensor_type;location;lat;lon;timestamp;pressure;altitude;pressure_sealevel;temperature;humidity
68399;BME280;56258;52.196;13.868;2023-01-29T00:01:56;102341.13;;;19.33;32.37
68399;BME280;56258;52.196;13.868;2023-01-29T00:04:22;102352.38;;;19.38;32.12
68399;BME280;56258;52.196;13.868;2023-01-29T00:06:49;102347.25;;;19.35;32.55
68399;BME280;56258;52.196;13.868;2023-01-29T00:09:16;102346.41;;;19.34;32.41
68399;BME280;56258;52.196;13.868;2023-01-29T00:11:43;102344.25;;;19.28;32.60
68399;BME280;56258;52.196;13.868;2023-01-29T00:14:11;102351.22;;;19.31;32.40
68399;BME280;56258;52.196;13.868;2023-01-29T00:16:38;102361.84;;;19.32;32.46
68399;BME280;56258;52.196;13.868;2023-01-29T00:19:04;102353.66;;;19.34;32.23
68399;BME280;56258;52.196;13.868;2023-01-29T00:21:31;102338.44;;;19.33;31.94
68399;BME280;56258;52.196;13.868;2023-01-29T00:23:58;102339.16;;;19.35;32.11
68399;BME280;56258;52.196;13.868;2023-01-29T00:26:26;102333.19;;;19.31;32.37
68399;BME280;56258;52.196;13.868;2023-01-29T00:28:53;102326.69;;;19.34;31.98
68399;BME280;56258;52.196;13.868;2023-01-29T00:31:22;102321.84;;;19.28;32.95
68399;BME280;56258;52.196;13.868;2023-01-29T00:33:49;102322.53;;;19.30;32.00
68399;BME280;56258;52.196;13.868;2023-01-29T00:36:18;102327.09;;;19.29;31.97
68399;BME280;56258;52.196;13.868;2023-01-29T00:38:45;102311.03;;;19.18;32.72
68399;BME280;56258;52.196;13.868;2023-01-29T00:41:20;102307.66;;;19.26;32.57
68399;BME280;56258;52.196;13.868;2023-01-29T00:44:06;102300.97;;;19.30;32.66
68399;BME280;56258;52.196;13.868;2023-01-29T00:46:51;102302.25;;;19.26;32.45
68399;BME280;56258;52.196;13.868;2023-01-29T00:49:18;102305.66;;;19.28;32.42
68399;BME280;56258;52.196;13.868;2023-01-29T00:51:45;102295.16;;;19.24;32.13
68399;BME280;56258;52.196;13.868;2023-01-29T00:54:31;102296.16;;;19.23;32.26
68399;BME280;56258;52.196;13.868;2023-01-29T00:56:59;102293.59;;;19.22;32.13
68399;BME280;56258;52.196;13.868;2023-01-29T00:59:25;102297.25;;;19.21;32.23
68399;BME280;56258;52.196;13.868;2023-01-29T01:01:52;102291.63;;;19.24;32.13
68399;BME280;56258;52.196;13.868;2023-01-29T01:04:37;102300.69;;;19.23;32.54
68399;BME280;56258;52.196;13.868;2023-01-29T01:07:04;102285.63;;;19.20;32.58
68399;BME280;56258;52.196;13.868;2023-01-29T01:09:31;102278.97;;;19.24;32.28
68399;BME280;56258;52.196;13.868;2023-01-29T01:12:19;102267.50;;;19.22;32.07
68399;BME280;56258;52.196;13.868;2023-01-29T01:14:46;102267.75;;;19.29;31.61
68399;BME280;56258;52.196;13.868;2023-01-29T01:17:13;102278.13;;;19.43;32.18
68399;BME280;56258;52.196;13.868;2023-01-29T01:19:41;102286.94;;;19.55;32.03
68399;BME280;56258;52.196;13.868;2023-01-29T01:22:07;102283.69;;;19.71;31.87
68399;BME280;56258;52.196;13.868;2023-01-29T01:24:34;102267.88;;;19.86;31.77
68399;BME280;56258;52.196;13.868;2023-01-29T01:27:00;102261.44;;;19.96;31.42
68399;BME280;56258;52.196;13.868;2023-01-29T01:29:27;102271.19;;;20.17;30.90
68399;BME280;56258;52.196;13.868;2023-01-29T01:31:53;102270.00;;;20.29;30.94
68399;BME280;56258;52.196;13.868;2023-01-29T01:34:20;102276.06;;;20.40;30.39
68399;BME280;56258;52.196;13.868;2023-01-29T01:36:47;102262.25;;;20.53;30.90
68399;BME280;56258;52.196;13.868;2023-01-29T01:39:14;102257.78;;;20.62;30.45
68399;BME280;56258;52.196;13.868;2023-01-29T01:41:41;102260.56;;;20.70;30.32
68399;BME280;56258;52.196;13.868;2023-01-29T01:47:12;102270.25;;;20.90;29.79
68399;BME280;56258;52.196;13.868;2023-01-29T01:49:41;102271.53;;;20.96;29.74
68399;BME280;56258;52.196;13.868;2023-01-29T01:52:08;102270.03;;;21.02;30.06
68399;BME280;56258;52.196;13.868;2023-01-29T01:54:35;102266.13;;;20.96;30.56
68399;BME280;56258;52.196;13.868;2023-01-29T01:57:09;102265.09;;;20.97;30.23
68399;BME280;56258;52.196;13.868;2023-01-29T02:00:05;102271.22;;;20.99;30.47
68399;BME280;56258;52.196;13.868;2023-01-29T02:02:38;102270.78;;;20.94;30.36
68399;BME280;56258;52.196;13.868;2023-01-29T02:05:24;102269.09;;;20.93;30.49
68399;BME280;56258;52.196;13.868;2023-01-29T02:08:10;102263.84;;;20.91;30.88
68399;BME280;56258;52.196;13.868;2023-01-29T02:10:56;102268.50;;;20.99;29.96
68399;BME280;56258;52.196;13.868;2023-01-29T02:13:23;102259.84;;;20.95;30.95
68399;BME280;56258;52.196;13.868;2023-01-29T02:15:50;102258.06;;;20.86;30.88
68399;BME280;56258;52.196;13.868;2023-01-29T02:18:19;102264.94;;;20.98;30.65
68399;BME280;56258;52.196;13.868;2023-01-29T02:24:14;102259.69;;;20.97;30.53
68399;BME280;56258;52.196;13.868;2023-01-29T02:29:19;102264.94;;;20.98;30.89
68399;BME280;56258;52.196;13.868;2023-01-29T02:31:56;102250.81;;;21.05;30.74
68399;BME280;56258;52.196;13.868;2023-01-29T02:40:45;102251.38;;;21.08;29.98
68399;BME280;56258;52.196;13.868;2023-01-29T02:46:38;102241.06;;;21.12;30.49
68399;BME280;56258;52.196;13.868;2023-01-29T02:57:21;102233.66;;;21.14;30.41
68399;BME280;56258;52.196;13.868;2023-01-29T02:59:57;102225.00;;;21.10;30.39
68399;BME280;56258;52.196;13.868;2023-01-29T03:02:32;102233.19;;;21.18;30.67
68399;BME280;56258;52.196;13.868;2023-01-29T03:05:07;102234.75;;;21.21;30.17
68399;BME280;56258;52.196;13.868;2023-01-29T03:07:42;102232.03;;;21.21;30.45
68399;BME280;56258;52.196;13.868;2023-01-29T03:10:20;102230.72;;;21.25;30.42
68399;BME280;56258;52.196;13.868;2023-01-29T03:12:56;102221.75;;;21.24;30.48
68399;BME280;56258;52.196;13.868;2023-01-29T03:15:30;102211.41;;;21.20;30.24
68399;BME280;56258;52.196;13.868;2023-01-29T03:18:09;102208.72;;;21.20;30.60
68399;BME280;56258;52.196;13.868;2023-01-29T03:20:43;102211.50;;;21.28;30.23
68399;BME280;56258;52.196;13.868;2023-01-29T03:23:34;102208.00;;;21.36;30.20
68399;BME280;56258;52.196;13.868;2023-01-29T03:26:21;102206.16;;;21.36;30.07
68399;BME280;56258;52.196;13.868;2023-01-29T03:29:08;102196.66;;;21.32;30.64
68399;BME280;56258;52.196;13.868;2023-01-29T03:31:54;102211.03;;;21.33;30.01
68399;BME280;56258;52.196;13.868;2023-01-29T03:34:41;102202.06;;;21.32;29.90
68399;BME280;56258;52.196;13.868;2023-01-29T03:37:21;102198.53;;;21.58;30.32
68399;BME280;56258;52.196;13.868;2023-01-29T03:39:49;102207.09;;;21.53;29.79
68399;BME280;56258;52.196;13.868;2023-01-29T03:42:51;102206.63;;;21.32;30.88
68399;BME280;56258;52.196;13.868;2023-01-29T03:48:33;102207.94;;;20.92;30.95
68399;BME280;56258;52.196;13.868;2023-01-29T03:51:29;102210.91;;;20.71;31.45
68399;BME280;56258;52.196;13.868;2023-01-29T03:54:15;102207.22;;;20.54;31.34
68399;BME280;56258;52.196;13.868;2023-01-29T03:56:57;102202.44;;;20.38;31.87
68399;BME280;56258;52.196;13.868;2023-01-29T03:59:34;102192.69;;;20.28;31.75
68399;BME280;56258;52.196;13.868;2023-01-29T04:02:18;102194.28;;;20.21;32.13
68399;BME280;56258;52.196;13.868;2023-01-29T04:04:49;102195.88;;;20.14;31.66
68399;BME280;56258;52.196;13.868;2023-01-29T04:07:19;102189.22;;;20.08;31.81
68399;BME280;56258;52.196;13.868;2023-01-29T04:10:02;102177.44;;;20.09;31.94
68399;BME280;56258;52.196;13.868;2023-01-29T04:12:41;102168.31;;;20.10;31.50
68399;BME280;56258;52.196;13.868;2023-01-29T04:15:12;102170.34;;;20.08;31.32
68399;BME280;56258;52.196;13.868;2023-01-29T04:17:48;102155.53;;;20.12;31.51
68399;BME280;56258;52.196;13.868;2023-01-29T04:20:15;102151.28;;;20.09;31.12
68399;BME280;56258;52.196;13.868;2023-01-29T04:22:45;102145.28;;;20.16;31.46
68399;BME280;56258;52.196;13.868;2023-01-29T04:25:15;102136.47;;;20.14;31.39
68399;BME280;56258;52.196;13.868;2023-01-29T04:27:57;102134.63;;;20.14;31.57
68399;BME280;56258;52.196;13.868;2023-01-29T04:36:36;102115.34;;;20.09;31.59
68399;BME280;56258;52.196;13.868;2023-01-29T04:39:25;102115.50;;;20.07;31.14
68399;BME280;56258;52.196;13.868;2023-01-29T04:44:53;102123.06;;;20.04;31.61
68399;BME280;56258;52.196;13.868;2023-01-29T04:47:48;102125.03;;;20.02;31.53
68399;BME280;56258;52.196;13.868;2023-01-29T04:50:23;102123.47;;;19.99;31.67
68399;BME280;56258;52.196;13.868;2023-01-29T04:53:13;102121.94;;;19.97;31.29
68399;BME280;56258;52.196;13.868;2023-01-29T04:58:24;102122.09;;;19.95;31.27
68399;BME280;56258;52.196;13.868;2023-01-29T05:00:53;102111.03;;;19.89;31.28
68399;BME280;56258;52.196;13.868;2023-01-29T05:03:22;102096.31;;;19.83;31.17
68399;BME280;56258;52.196;13.868;2023-01-29T05:05:50;102107.63;;;19.87;31.59
68399;BME280;56258;52.196;13.868;2023-01-29T05:08:20;102107.63;;;19.87;31.71
68399;BME280;56258;52.196;13.868;2023-01-29T05:10:48;102109.78;;;19.83;31.35
68399;BME280;56258;52.196;13.868;2023-01-29T05:13:17;102104.41;;;19.83;31.63
68399;BME280;56258;52.196;13.868;2023-01-29T05:18:25;102093.78;;;19.72;31.51
68399;BME280;56258;52.196;13.868;2023-01-29T05:20:54;102099.31;;;19.80;31.48
68399;BME280;56258;52.196;13.868;2023-01-29T05:23:22;102096.66;;;19.70;31.95
68399;BME280;56258;52.196;13.868;2023-01-29T05:25:50;102096.34;;;19.73;31.39
68399;BME280;56258;52.196;13.868;2023-01-29T05:28:17;102100.75;;;19.74;31.31
68399;BME280;56258;52.196;13.868;2023-01-29T05:30:49;102110.38;;;19.77;31.88
68399;BME280;56258;52.196;13.868;2023-01-29T05:33:26;102109.28;;;19.70;31.59
68399;BME280;56258;52.196;13.868;2023-01-29T05:35:54;102118.22;;;19.70;31.72
68399;BME280;56258;52.196;13.868;2023-01-29T05:38:21;102112.88;;;19.61;31.69
68399;BME280;56258;52.196;13.868;2023-01-29T05:40:48;102123.06;;;19.67;31.56
68399;BME280;56258;52.196;13.868;2023-01-29T05:43:20;102119.22;;;19.69;31.79
68399;BME280;56258;52.196;13.868;2023-01-29T05:45:58;102125.31;;;19.71;31.78
68399;BME280;56258;52.196;13.868;2023-01-29T05:48:26;102126.75;;;19.66;31.44
68399;BME280;56258;52.196;13.868;2023-01-29T05:50:59;102119.66;;;19.65;31.94
68399;BME280;56258;52.196;13.868;2023-01-29T05:53:27;102121.38;;;19.56;31.79
68399;BME280;56258;52.196;13.868;2023-01-29T05:55:54;102129.75;;;19.63;31.66
68399;BME280;56258;52.196;13.868;2023-01-29T05:58:22;102123.81;;;19.59;31.36
68399;BME280;56258;52.196;13.868;2023-01-29T06:00:49;102114.88;;;19.59;31.70
68399;BME280;56258;52.196;13.868;2023-01-29T06:03:15;102120.81;;;19.62;31.55
68399;BME280;56258;52.196;13.868;2023-01-29T06:05:42;102131.44;;;19.64;31.49
68399;BME280;56258;52.196;13.868;2023-01-29T06:08:09;102127.06;;;19.63;31.57
68399;BME280;56258;52.196;13.868;2023-01-29T06:10:35;102138.53;;;19.65;31.71
68399;BME280;56258;52.196;13.868;2023-01-29T06:13:02;102158.59;;;19.62;31.56
68399;BME280;56258;52.196;13.868;2023-01-29T06:15:29;102168.38;;;19.63;31.70
68399;BME280;56258;52.196;13.868;2023-01-29T06:17:56;102172.06;;;19.62;31.70
68399;BME280;56258;52.196;13.868;2023-01-29T06:20:23;102157.44;;;19.55;31.83
68399;BME280;56258;52.196;13.868;2023-01-29T06:22:50;102159.72;;;19.60;31.64
68399;BME280;56258;52.196;13.868;2023-01-29T06:25:16;102173.06;;;19.61;31.49
68399;BME280;56258;52.196;13.868;2023-01-29T06:27:43;102151.63;;;19.60;31.56
68399;BME280;56258;52.196;13.868;2023-01-29T06:30:10;102149.50;;;19.63;31.98
68399;BME280;56258;52.196;13.868;2023-01-29T06:32:37;102154.19;;;19.61;31.39
68399;BME280;56258;52.196;13.868;2023-01-29T06:35:04;102154.19;;;19.61;31.52
68399;BME280;56258;52.196;13.868;2023-01-29T06:37:30;102154.34;;;19.60;31.63
68399;BME280;56258;52.196;13.868;2023-01-29T06:39:57;102147.09;;;19.60;31.49
68399;BME280;56258;52.196;13.868;2023-01-29T06:42:23;102162.28;;;19.61;31.64
68399;BME280;56258;52.196;13.868;2023-01-29T06:44:54;102147.94;;;19.51;31.79
68399;BME280;56258;52.196;13.868;2023-01-29T06:47:21;102162.13;;;19.53;31.47
68399;BME280;56258;52.196;13.868;2023-01-29T06:49:48;102162.13;;;19.53;31.38
68399;BME280;56258;52.196;13.868;2023-01-29T06:52:15;102158.31;;;19.56;31.92
68399;BME280;56258;52.196;13.868;2023-01-29T06:54:42;102161.72;;;19.58;31.63
68399;BME280;56258;52.196;13.868;2023-01-29T06:57:08;102162.72;;;19.57;31.37
68399;BME280;56258;52.196;13.868;2023-01-29T06:59:35;102166.97;;;19.59;31.40
68399;BME280;56258;52.196;13.868;2023-01-29T07:02:06;102163.13;;;19.52;31.54
68399;BME280;56258;52.196;13.868;2023-01-29T07:04:32;102162.13;;;19.53;31.32
68399;BME280;56258;52.196;13.868;2023-01-29T07:07:00;102174.59;;;19.54;31.10
68399;BME280;56258;52.196;13.868;2023-01-29T07:09:27;102166.50;;;19.54;31.82
68399;BME280;56258;52.196;13.868;2023-01-29T07:11:53;102157.44;;;19.55;31.48
68399;BME280;56258;52.196;13.868;2023-01-29T07:14:20;102169.09;;;19.56;31.54
68399;BME280;56258;52.196;13.868;2023-01-29T07:16:47;102168.25;;;19.55;31.66
68399;BME280;56258;52.196;13.868;2023-01-29T07:19:13;102164.28;;;19.59;31.77
68399;BME280;56258;52.196;13.868;2023-01-29T07:21:40;102164.28;;;19.59;31.83
68399;BME280;56258;52.196;13.868;2023-01-29T07:24:07;102158.03;;;19.59;31.36
68399;BME280;56258;52.196;13.868;2023-01-29T07:26:34;102156.44;;;19.66;31.52
68399;BME280;56258;52.196;13.868;2023-01-29T07:29:00;102146.22;;;19.69;31.84
68399;BME280;56258;52.196;13.868;2023-01-29T07:31:27;102160.56;;;19.70;31.98
68399;BME280;56258;52.196;13.868;2023-01-29T07:33:54;102158.00;;;19.68;31.66
68399;BME280;56258;52.196;13.868;2023-01-29T07:36:21;102165.94;;;19.70;31.83
68399;BME280;56258;52.196;13.868;2023-01-29T07:38:49;102143.78;;;19.66;31.68
68399;BME280;56258;52.196;13.868;2023-01-29T07:41:16;102145.47;;;19.67;31.89
68399;BME280;56258;52.196;13.868;2023-01-29T07:43:43;102146.34;;;19.68;32.02
68399;BME280;56258;52.196;13.868;2023-01-29T07:46:09;102147.22;;;19.68;32.03
68399;BME280;56258;52.196;13.868;2023-01-29T07:48:36;102141.66;;;19.70;32.16
68399;BME280;56258;52.196;13.868;2023-01-29T07:51:03;102144.63;;;19.67;32.10
68399;BME280;56258;52.196;13.868;2023-01-29T07:53:30;102147.06;;;19.70;32.02
68399;BME280;56258;52.196;13.868;2023-01-29T07:55:57;102144.38;;;19.70;31.79
68399;BME280;56258;52.196;13.868;2023-01-29T07:58:23;102144.38;;;19.70;31.70
68399;BME280;56258;52.196;13.868;2023-01-29T08:00:50;102129.75;;;19.63;31.55
68399;BME280;56258;52.196;13.868;2023-01-29T08:03:18;102115.97;;;19.66;31.84
68399;BME280;56258;52.196;13.868;2023-01-29T08:05:45;102104.31;;;19.65;31.88
68399;BME280;56258;52.196;13.868;2023-01-29T08:08:13;102117.97;;;19.64;31.79
68399;BME280;56258;52.196;13.868;2023-01-29T08:10:40;102121.97;;;19.60;31.96
68399;BME280;56258;52.196;13.868;2023-01-29T08:13:08;102122.50;;;19.63;31.96
68399;BME280;56258;52.196;13.868;2023-01-29T08:15:35;102113.72;;;19.61;31.94
68399;BME280;56258;52.196;13.868;2023-01-29T08:18:04;102113.56;;;19.53;32.00
68399;BME280;56258;52.196;13.868;2023-01-29T08:20:31;102110.31;;;19.59;32.33
68399;BME280;56258;52.196;13.868;2023-01-29T08:23:04;102105.63;;;19.61;31.62
68399;BME280;56258;52.196;13.868;2023-01-29T08:25:32;102096.84;;;19.59;32.00
68399;BME280;56258;52.196;13.868;2023-01-29T08:28:00;102091.72;;;19.56;31.88
68399;BME280;56258;52.196;13.868;2023-01-29T08:30:31;102104.22;;;19.57;31.52
68399;BME280;56258;52.196;13.868;2023-01-29T08:32:58;102103.78;;;19.52;31.88
68399;BME280;56258;52.196;13.868;2023-01-29T08:35:25;102105.63;;;19.51;31.63
68399;BME280;56258;52.196;13.868;2023-01-29T08:37:55;102098.38;;;19.52;31.73
68399;BME280;56258;52.196;13.868;2023-01-29T08:40:28;102101.06;;;19.52;31.98
68399;BME280;56258;52.196;13.868;2023-01-29T08:43:01;102105.63;;;19.51;31.73
68399;BME280;56258;52.196;13.868;2023-01-29T08:45:32;102111.16;;;19.50;31.74
68399;BME280;56258;52.196;13.868;2023-01-29T08:47:59;102103.22;;;19.48;31.83
68399;BME280;56258;52.196;13.868;2023-01-29T08:50:26;102103.94;;;19.50;32.05
68399;BME280;56258;52.196;13.868;2023-01-29T08:52:57;102100.38;;;19.50;31.72
68399;BME280;56258;52.196;13.868;2023-01-29T08:55:25;102093.00;;;19.52;32.07
68399;BME280;56258;52.196;13.868;2023-01-29T08:57:51;102093.13;;;19.50;31.66
68399;BME280;56258;52.196;13.868;2023-01-29T09:00:18;102093.59;;;19.46;31.82
68399;BME280;56258;52.196;13.868;2023-01-29T09:02:45;102106.63;;;19.50;31.78
68399;BME280;56258;52.196;13.868;2023-01-29T09:05:12;102115.16;;;19.46;31.61
68399;BME280;56258;52.196;13.868;2023-01-29T09:07:38;102109.16;;;19.52;31.86
68399;BME280;56258;52.196;13.868;2023-01-29T09:10:09;102116.88;;;19.47;31.74
68399;BME280;56258;52.196;13.868;2023-01-29T09:12:37;102106.63;;;19.50;31.71
68399;BME280;56258;52.196;13.868;2023-01-29T09:15:04;102101.78;;;19.54;31.61
68399;BME280;56258;52.196;13.868;2023-01-29T09:17:31;102094.00;;;19.51;32.14
68399;BME280;56258;52.196;13.868;2023-01-29T09:19:57;102089.75;;;19.48;31.41
68399;BME280;56258;52.196;13.868;2023-01-29T09:22:24;102081.50;;;19.50;31.85
68399;BME280;56258;52.196;13.868;2023-01-29T09:24:50;102081.66;;;19.48;31.65
68399;BME280;56258;52.196;13.868;2023-01-29T09:27:17;102093.84;;;19.52;31.92
68399;BME280;56258;52.196;13.868;2023-01-29T09:29:44;102081.66;;;19.48;31.81
68399;BME280;56258;52.196;13.868;2023-01-29T09:32:10;102079.09;;;19.47;31.67
68399;BME280;56258;52.196;13.868;2023-01-29T09:34:37;102086.34;;;19.46;31.75
68399;BME280;56258;52.196;13.868;2023-01-29T09:37:03;102081.81;;;19.47;32.12
68399;BME280;56258;52.196;13.868;2023-01-29T09:39:30;102090.75;;;19.47;31.92
68399;BME280;56258;52.196;13.868;2023-01-29T09:45:05;102092.59;;;19.47;31.84
68399;BME280;56258;52.196;13.868;2023-01-29T09:47:35;102092.00;;;19.43;31.89
68399;BME280;56258;52.196;13.868;2023-01-29T09:50:05;102082.06;;;19.44;31.86
68399;BME280;56258;52.196;13.868;2023-01-29T09:52:36;102081.09;;;19.45;31.31
68399;BME280;56258;52.196;13.868;2023-01-29T09:55:19;102073.88;;;19.45;31.57
68399;BME280;56258;52.196;13.868;2023-01-29T10:00:25;102055.09;;;19.44;31.89
68399;BME280;56258;52.196;13.868;2023-01-29T10:03:26;102062.06;;;19.46;32.06
68399;BME280;56258;52.196;13.868;2023-01-29T10:09:12;102061.06;;;19.47;31.44
68399;BME280;56258;52.196;13.868;2023-01-29T10:11:48;102051.97;;;19.48;31.46
68399;BME280;56258;52.196;13.868;2023-01-29T10:23:13;102031.41;;;19.57;31.63
68399;BME280;56258;52.196;13.868;2023-01-29T10:25:43;102022.00;;;19.61;31.68
68399;BME280;56258;52.196;13.868;2023-01-29T10:30:59;102010.31;;;19.70;31.23
68399;BME280;56258;52.196;13.868;2023-01-29T10:33:35;102004.28;;;19.76;31.11
68399;BME280;56258;52.196;13.868;2023-01-29T10:38:59;101988.50;;;19.81;31.07
68399;BME280;56258;52.196;13.868;2023-01-29T10:41:33;101985.19;;;19.88;30.95
68399;BME280;56258;52.196;13.868;2023-01-29T10:52:27;102008.47;;;19.89;31.03
68399;BME280;56258;52.196;13.868;2023-01-29T11:00:35;101989.41;;;19.90;30.97
68399;BME280;56258;52.196;13.868;2023-01-29T11:03:24;101987.28;;;19.94;31.05
68399;BME280;56258;52.196;13.868;2023-01-29T11:08:54;101977.72;;;19.99;30.90
68399;BME280;56258;52.196;13.868;2023-01-29T11:11:40;101961.00;;;19.96;30.94
68399;BME280;56258;52.196;13.868;2023-01-29T11:14:21;101952.72;;;19.97;30.51
68399;BME280;56258;52.196;13.868;2023-01-29T11:16:50;101953.91;;;19.95;30.96
68399;BME280;56258;52.196;13.868;2023-01-29T11:19:17;101946.41;;;19.89;30.67
68399;BME280;56258;52.196;13.868;2023-01-29T11:22:01;101941.84;;;19.89;30.76
68399;BME280;56258;52.196;13.868;2023-01-29T11:24:29;101934.22;;;19.85;30.78
68399;BME280;56258;52.196;13.868;2023-01-29T11:26:58;101939.63;;;19.85;31.23
68399;BME280;56258;52.196;13.868;2023-01-29T11:29:40;101939.31;;;20.05;30.51
68399;BME280;56258;52.196;13.868;2023-01-29T11:37:38;101946.56;;;20.05;30.71
68399;BME280;56258;52.196;13.868;2023-01-29T11:42:45;101939.63;;;19.85;30.92
68399;BME280;56258;52.196;13.868;2023-01-29T11:47:57;101937.53;;;19.78;30.92
68399;BME280;56258;52.196;13.868;2023-01-29T11:50:30;101928.69;;;19.68;31.20
68399;BME280;56258;52.196;13.868;2023-01-29T11:52:58;101922.56;;;19.66;31.18
68399;BME280;56258;52.196;13.868;2023-01-29T11:55:27;101930.28;;;19.61;31.20
68399;BME280;56258;52.196;13.868;2023-01-29T11:58:27;101921.03;;;19.64;31.47
68399;BME280;56258;52.196;13.868;2023-01-29T12:00:54;101920.03;;;19.65;30.91
68399;BME280;56258;52.196;13.868;2023-01-29T12:03:33;101910.75;;;19.67;31.43
68399;BME280;56258;52.196;13.868;2023-01-29T12:08:35;101905.53;;;19.66;30.87
68399;BME280;56258;52.196;13.868;2023-01-29T12:11:12;101909.47;;;19.71;31.02
68399;BME280;56258;52.196;13.868;2023-01-29T12:13:40;101913.63;;;19.66;31.31
68399;BME280;56258;52.196;13.868;2023-01-29T12:16:14;101905.00;;;19.62;31.05
68399;BME280;56258;52.196;13.868;2023-01-29T12:18:47;101907.00;;;19.60;31.21
68399;BME280;56258;52.196;13.868;2023-01-29T12:21:23;101903.47;;;19.60;31.49
68399;BME280;56258;52.196;13.868;2023-01-29T12:24:27;101892.72;;;19.68;31.17
68399;BME280;56258;52.196;13.868;2023-01-29T12:27:06;101876.31;;;19.61;31.14
68399;BME280;56258;52.196;13.868;2023-01-29T12:40:17;101863.56;;;19.53;31.34
68399;BME280;56258;52.196;13.868;2023-01-29T12:42:48;101862.44;;;19.56;31.22
68399;BME280;56258;52.196;13.868;2023-01-29T12:45:21;101842.13;;;19.52;31.33
68399;BME280;56258;52.196;13.868;2023-01-29T12:47:55;101850.66;;;19.57;31.58
68399;BME280;56258;52.196;13.868;2023-01-29T12:50:28;101852.03;;;19.61;31.11
68399;BME280;56258;52.196;13.868;2023-01-29T12:52:59;101843.78;;;19.63;31.25
68399;BME280;56258;52.196;13.868;2023-01-29T12:55:39;101828.78;;;19.60;31.04
68399;BME280;56258;52.196;13.868;2023-01-29T12:58:21;101832.31;;;19.61;31.42
68399;BME280;56258;52.196;13.868;2023-01-29T13:00:54;101823.94;;;19.54;31.38
68399;BME280;56258;52.196;13.868;2023-01-29T13:03:31;101813.03;;;19.56;31.38
68399;BME280;56258;52.196;13.868;2023-01-29T13:06:07;101802.97;;;19.58;31.31
68399;BME280;56258;52.196;13.868;2023-01-29T13:08:39;101802.38;;;19.54;31.05
68399;BME280;56258;52.196;13.868;2023-01-29T13:11:13;101801.69;;;19.52;31.43
68399;BME280;56258;52.196;13.868;2023-01-29T13:13:55;101819.19;;;19.48;31.35
68399;BME280;56258;52.196;13.868;2023-01-29T13:16:26;101806.31;;;19.42;31.21
68399;BME280;56258;52.196;13.868;2023-01-29T13:18:59;101814.88;;;19.37;31.46
68399;BME280;56258;52.196;13.868;2023-01-29T13:21:35;101832.13;;;19.27;31.64
68399;BME280;56258;52.196;13.868;2023-01-29T13:24:08;101829.09;;;19.30;31.93
68399;BME280;56258;52.196;13.868;2023-01-29T13:26:38;101819.78;;;19.24;31.65
68399;BME280;56258;52.196;13.868;2023-01-29T13:29:05;101837.88;;;19.32;31.84
68399;BME280;56258;52.196;13.868;2023-01-29T13:31:38;101830.50;;;19.34;31.29
68399;BME280;56258;52.196;13.868;2023-01-29T13:36:48;101833.75;;;19.37;31.03
68399;BME280;56258;52.196;13.868;2023-01-29T13:39:27;101828.88;;;19.41;31.82
68399;BME280;56258;52.196;13.868;2023-01-29T13:41:56;101830.19;;;19.37;31.41
68399;BME280;56258;52.196;13.868;2023-01-29T13:44:34;101826.72;;;19.44;31.19
68399;BME280;56258;52.196;13.868;2023-01-29T13:47:05;101832.09;;;19.44;31.48
68399;BME280;56258;52.196;13.868;2023-01-29T13:49:42;101820.78;;;19.41;31.41
68399;BME280;56258;52.196;13.868;2023-01-29T13:55:06;101817.09;;;19.42;31.28
68399;BME280;56258;52.196;13.868;2023-01-29T14:08:04;101816.50;;;19.48;31.28
68399;BME280;56258;52.196;13.868;2023-01-29T14:10:32;101806.31;;;19.42;31.80
68399;BME280;56258;52.196;13.868;2023-01-29T14:18:25;101803.00;;;19.48;31.42
68399;BME280;56258;52.196;13.868;2023-01-29T14:21:22;101805.91;;;19.54;31.00
68399;BME280;56258;52.196;13.868;2023-01-29T14:23:55;101789.19;;;19.51;31.23
68399;BME280;56258;52.196;13.868;2023-01-29T14:26:39;101801.97;;;19.59;30.97
68399;BME280;56258;52.196;13.868;2023-01-29T14:32:13;101792.44;;;19.54;31.23
68399;BME280;56258;52.196;13.868;2023-01-29T14:34:47;101792.59;;;19.53;31.75
68399;BME280;56258;52.196;13.868;2023-01-29T14:42:32;101788.34;;;19.50;31.68
68399;BME280;56258;52.196;13.868;2023-01-29T14:45:28;101788.00;;;19.45;31.29
68399;BME280;56258;52.196;13.868;2023-01-29T14:53:26;101787.44;;;19.42;31.22
68399;BME280;56258;52.196;13.868;2023-01-29T14:56:03;101791.81;;;19.43;31.42
68399;BME280;56258;52.196;13.868;2023-01-29T15:01:33;101785.06;;;19.39;31.77
68399;BME280;56258;52.196;13.868;2023-01-29T15:04:04;101776.28;;;19.37;31.98
68399;BME280;56258;52.196;13.868;2023-01-29T15:06:40;101783.50;;;19.36;31.69
68399;BME280;56258;52.196;13.868;2023-01-29T15:09:16;101776.28;;;19.37;31.48
68399;BME280;56258;52.196;13.868;2023-01-29T15:11:48;101774.75;;;19.34;32.11
68399;BME280;56258;52.196;13.868;2023-01-29T15:14:23;101762.69;;;19.29;31.66
68399;BME280;56258;52.196;13.868;2023-01-29T15:16:59;101770.63;;;19.30;31.49
68399;BME280;56258;52.196;13.868;2023-01-29T15:19:34;101755.25;;;19.22;31.48
68399;BME280;56258;52.196;13.868;2023-01-29T15:22:12;101754.25;;;19.23;31.56
68399;BME280;56258;52.196;13.868;2023-01-29T15:24:40;101752.25;;;19.26;32.06
68399;BME280;56258;52.196;13.868;2023-01-29T15:27:18;101743.31;;;19.25;31.68
68399;BME280;56258;52.196;13.868;2023-01-29T15:30:04;101732.44;;;19.17;31.79
68399;BME280;56258;52.196;13.868;2023-01-29T15:32:35;101732.69;;;19.23;32.19